sensor_id;sensor_type;location;lat;lon;timestamp;temperature;humidity
4501;DHT22;2263;54.654;9.410;2023-04-28T00:02:06;7.70;68.80
4501;DHT22;2263;54.654;9.410;2023-04-28T00:04:34;7.70;68.90
4501;DHT22;2263;54.654;9.410;2023-04-28T00:07:02;7.70;69.10
4501;DHT22;2263;54.654;9.410;2023-04-28T00:09:30;7.60;68.90
4501;DHT22;2263;54.654;9.410;2023-04-28T00:11:57;7.60;68.70
4501;DHT22;2263;54.654;9.410;2023-04-28T00:14:26;7.60;68.90
4501;DHT22;2263;54.654;9.410;2023-04-28T00:16:56;7.60;68.80
4501;DHT22;2263;54.654;9.410;2023-04-28T00:19:25;7.50;68.70
4501;DHT22;2263;54.654;9.410;2023-04-28T00:21:52;7.50;68.70
4501;DHT22;2263;54.654;9.410;2023-04-28T00:24:20;7.50;68.80
4501;DHT22;2263;54.654;9.410;2023-04-28T00:26:48;7.50;68.80
4501;DHT22;2263;54.654;9.410;2023-04-28T00:29:15;7.50;69.00
4501;DHT22;2263;54.654;9.410;2023-04-28T00:31:43;7.50;68.80
4501;DHT22;2263;54.654;9.410;2023-04-28T00:34:11;7.40;68.70
4501;DHT22;2263;54.654;9.410;2023-04-28T00:36:41;7.40;68.70
4501;DHT22;2263;54.654;9.410;2023-04-28T00:39:08;7.40;68.70
4501;DHT22;2263;54.654;9.410;2023-04-28T00:41:36;7.40;68.80
4501;DHT22;2263;54.654;9.410;2023-04-28T00:44:03;7.40;68.90
4501;DHT22;2263;54.654;9.410;2023-04-28T00:46:32;7.40;69.10
4501;DHT22;2263;54.654;9.410;2023-04-28T00:49:00;7.30;68.70
4501;DHT22;2263;54.654;9.410;2023-04-28T00:51:30;7.30;69.00
4501;DHT22;2263;54.654;9.410;2023-04-28T00:53:59;7.30;69.10
4501;DHT22;2263;54.654;9.410;2023-04-28T00:56:28;7.30;69.10
4501;DHT22;2263;54.654;9.410;2023-04-28T00:58:58;7.30;69.00
4501;DHT22;2263;54.654;9.410;2023-04-28T01:01:25;7.20;69.00
4501;DHT22;2263;54.654;9.410;2023-04-28T01:03:53;7.20;68.90
4501;DHT22;2263;54.654;9.410;2023-04-28T01:06:21;7.20;69.00
4501;DHT22;2263;54.654;9.410;2023-04-28T01:08:51;7.20;69.20
4501;DHT22;2263;54.654;9.410;2023-04-28T01:11:19;7.20;69.10
4501;DHT22;2263;54.654;9.410;2023-04-28T01:13:47;7.20;69.10
4501;DHT22;2263;54.654;9.410;2023-04-28T01:16:14;7.10;69.20
4501;DHT22;2263;54.654;9.410;2023-04-28T01:18:45;7.10;69.30
4501;DHT22;2263;54.654;9.410;2023-04-28T01:21:13;7.10;69.30
4501;DHT22;2263;54.654;9.410;2023-04-28T01:23:45;7.10;69.50
4501;DHT22;2263;54.654;9.410;2023-04-28T01:26:12;7.10;69.60
4501;DHT22;2263;54.654;9.410;2023-04-28T01:28:40;7.10;69.50
4501;DHT22;2263;54.654;9.410;2023-04-28T01:31:07;7.10;69.50
4501;DHT22;2263;54.654;9.410;2023-04-28T01:33:35;7.10;69.70
4501;DHT22;2263;54.654;9.410;2023-04-28T01:36:03;7.10;69.80
4501;DHT22;2263;54.654;9.410;2023-04-28T01:38:30;7.00;69.90
4501;DHT22;2263;54.654;9.410;2023-04-28T01:40:58;7.00;69.90
4501;DHT22;2263;54.654;9.410;2023-04-28T01:43:26;7.00;69.90
4501;DHT22;2263;54.654;9.410;2023-04-28T01:45:53;7.00;70.00
4501;DHT22;2263;54.654;9.410;2023-04-28T01:48:21;7.00;70.00
4501;DHT22;2263;54.654;9.410;2023-04-28T01:50:49;7.00;70.20
4501;DHT22;2263;54.654;9.410;2023-04-28T01:53:16;7.00;70.10
4501;DHT22;2263;54.654;9.410;2023-04-28T01:55:46;7.00;70.30
4501;DHT22;2263;54.654;9.410;2023-04-28T01:58:14;7.00;70.20
4501;DHT22;2263;54.654;9.410;2023-04-28T02:00:42;7.00;70.40
4501;DHT22;2263;54.654;9.410;2023-04-28T02:03:09;7.00;70.50
4501;DHT22;2263;54.654;9.410;2023-04-28T02:05:37;7.00;70.50
4501;DHT22;2263;54.654;9.410;2023-04-28T02:08:04;6.90;70.40
4501;DHT22;2263;54.654;9.410;2023-04-28T02:10:32;6.90;70.50
4501;DHT22;2263;54.654;9.410;2023-04-28T02:13:00;6.90;70.60
4501;DHT22;2263;54.654;9.410;2023-04-28T02:15:27;6.90;70.60
4501;DHT22;2263;54.654;9.410;2023-04-28T02:17:55;6.90;70.70
4501;DHT22;2263;54.654;9.410;2023-04-28T02:20:22;6.90;70.70
4501;DHT22;2263;54.654;9.410;2023-04-28T02:22:50;6.90;70.80
4501;DHT22;2263;54.654;9.410;2023-04-28T02:25:17;6.90;71.00
4501;DHT22;2263;54.654;9.410;2023-04-28T02:27:45;6.90;71.00
4501;DHT22;2263;54.654;9.410;2023-04-28T02:30:13;6.90;71.00
4501;DHT22;2263;54.654;9.410;2023-04-28T02:32:40;6.80;71.10
4501;DHT22;2263;54.654;9.410;2023-04-28T02:35:08;6.80;71.00
4501;DHT22;2263;54.654;9.410;2023-04-28T02:37:36;6.80;71.20
4501;DHT22;2263;54.654;9.410;2023-04-28T02:40:03;6.80;71.20
4501;DHT22;2263;54.654;9.410;2023-04-28T02:42:31;6.80;71.30
4501;DHT22;2263;54.654;9.410;2023-04-28T02:44:59;6.80;71.20
4501;DHT22;2263;54.654;9.410;2023-04-28T02:47:26;6.70;71.20
4501;DHT22;2263;54.654;9.410;2023-04-28T02:49:54;6.70;71.30
4501;DHT22;2263;54.654;9.410;2023-04-28T02:52:21;6.70;71.30
4501;DHT22;2263;54.654;9.410;2023-04-28T02:54:49;6.70;71.30
4501;DHT22;2263;54.654;9.410;2023-04-28T02:57:20;6.70;71.40
4501;DHT22;2263;54.654;9.410;2023-04-28T02:59:53;6.70;71.10
4501;DHT22;2263;54.654;9.410;2023-04-28T03:02:20;6.70;71.40
4501;DHT22;2263;54.654;9.410;2023-04-28T03:04:49;6.70;71.30
4501;DHT22;2263;54.654;9.410;2023-04-28T03:07:17;6.70;71.10
4501;DHT22;2263;54.654;9.410;2023-04-28T03:09:44;6.60;71.10
4501;DHT22;2263;54.654;9.410;2023-04-28T03:12:12;6.60;71.20
4501;DHT22;2263;54.654;9.410;2023-04-28T03:14:40;6.60;71.40
4501;DHT22;2263;54.654;9.410;2023-04-28T03:17:07;6.60;71.40
4501;DHT22;2263;54.654;9.410;2023-04-28T03:19:35;6.60;71.20
4501;DHT22;2263;54.654;9.410;2023-04-28T03:22:03;6.50;71.20
4501;DHT22;2263;54.654;9.410;2023-04-28T03:24:30;6.50;71.30
4501;DHT22;2263;54.654;9.410;2023-04-28T03:26:58;6.50;71.00
4501;DHT22;2263;54.654;9.410;2023-04-28T03:29:25;6.50;71.20
4501;DHT22;2263;54.654;9.410;2023-04-28T03:31:53;6.50;70.90
4501;DHT22;2263;54.654;9.410;2023-04-28T03:34:20;6.50;71.20
4501;DHT22;2263;54.654;9.410;2023-04-28T03:36:48;6.50;71.10
4501;DHT22;2263;54.654;9.410;2023-04-28T03:39:15;6.50;71.00
4501;DHT22;2263;54.654;9.410;2023-04-28T03:41:43;6.40;71.10
4501;DHT22;2263;54.654;9.410;2023-04-28T03:44:10;6.40;70.80
4501;DHT22;2263;54.654;9.410;2023-04-28T03:46:38;6.40;70.70
4501;DHT22;2263;54.654;9.410;2023-04-28T03:49:06;6.40;71.00
4501;DHT22;2263;54.654;9.410;2023-04-28T03:51:34;6.40;70.70
4501;DHT22;2263;54.654;9.410;2023-04-28T03:54:02;6.30;70.60
4501;DHT22;2263;54.654;9.410;2023-04-28T03:56:29;6.30;70.70
4501;DHT22;2263;54.654;9.410;2023-04-28T03:58:57;6.30;70.60
4501;DHT22;2263;54.654;9.410;2023-04-28T04:01:28;6.30;70.50
4501;DHT22;2263;54.654;9.410;2023-04-28T04:03:55;6.20;70.90
4501;DHT22;2263;54.654;9.410;2023-04-28T04:06:23;6.20;71.20
4501;DHT22;2263;54.654;9.410;2023-04-28T04:08:51;6.20;71.30
4501;DHT22;2263;54.654;9.410;2023-04-28T04:11:18;6.20;70.90
4501;DHT22;2263;54.654;9.410;2023-04-28T04:13:46;6.20;70.80
4501;DHT22;2263;54.654;9.410;2023-04-28T04:16:14;6.20;70.80
4501;DHT22;2263;54.654;9.410;2023-04-28T04:18:42;6.20;71.00
4501;DHT22;2263;54.654;9.410;2023-04-28T04:21:10;6.20;70.70
4501;DHT22;2263;54.654;9.410;2023-04-28T04:23:37;6.10;70.80
4501;DHT22;2263;54.654;9.410;2023-04-28T04:26:05;6.10;71.20
4501;DHT22;2263;54.654;9.410;2023-04-28T04:28:32;6.10;70.90
4501;DHT22;2263;54.654;9.410;2023-04-28T04:31:00;6.10;71.10
4501;DHT22;2263;54.654;9.410;2023-04-28T04:33:29;6.10;71.60
4501;DHT22;2263;54.654;9.410;2023-04-28T04:35:56;6.10;71.70
4501;DHT22;2263;54.654;9.410;2023-04-28T04:38:24;6.10;71.50
4501;DHT22;2263;54.654;9.410;2023-04-28T04:40:51;6.10;71.70
4501;DHT22;2263;54.654;9.410;2023-04-28T04:43:19;6.00;71.90
4501;DHT22;2263;54.654;9.410;2023-04-28T04:45:47;6.00;72.00
4501;DHT22;2263;54.654;9.410;2023-04-28T04:48:15;6.00;72.10
4501;DHT22;2263;54.654;9.410;2023-04-28T04:50:43;6.00;72.20
4501;DHT22;2263;54.654;9.410;2023-04-28T04:53:10;6.00;72.30
4501;DHT22;2263;54.654;9.410;2023-04-28T04:55:42;6.00;72.50
4501;DHT22;2263;54.654;9.410;2023-04-28T04:58:10;6.00;72.70
4501;DHT22;2263;54.654;9.410;2023-04-28T05:00:37;5.90;72.50
4501;DHT22;2263;54.654;9.410;2023-04-28T05:03:05;6.00;72.70
4501;DHT22;2263;54.654;9.410;2023-04-28T05:05:33;6.00;72.80
4501;DHT22;2263;54.654;9.410;2023-04-28T05:08:00;5.90;72.70
4501;DHT22;2263;54.654;9.410;2023-04-28T05:10:28;6.00;72.80
4501;DHT22;2263;54.654;9.410;2023-04-28T05:12:56;5.90;72.80
4501;DHT22;2263;54.654;9.410;2023-04-28T05:15:24;5.90;72.90
4501;DHT22;2263;54.654;9.410;2023-04-28T05:17:52;5.90;73.00
4501;DHT22;2263;54.654;9.410;2023-04-28T05:20:20;5.90;73.10
4501;DHT22;2263;54.654;9.410;2023-04-28T05:22:48;5.90;73.10
4501;DHT22;2263;54.654;9.410;2023-04-28T05:25:15;5.90;73.10
4501;DHT22;2263;54.654;9.410;2023-04-28T05:27:43;5.90;73.20
4501;DHT22;2263;54.654;9.410;2023-04-28T05:30:10;5.90;73.20
4501;DHT22;2263;54.654;9.410;2023-04-28T05:32:38;5.90;73.30
4501;DHT22;2263;54.654;9.410;2023-04-28T05:35:06;5.90;73.30
4501;DHT22;2263;54.654;9.410;2023-04-28T05:37:33;5.90;73.50
4501;DHT22;2263;54.654;9.410;2023-04-28T05:40:01;5.90;73.40
4501;DHT22;2263;54.654;9.410;2023-04-28T05:42:30;5.90;74.10
4501;DHT22;2263;54.654;9.410;2023-04-28T05:44:58;5.90;73.60
4501;DHT22;2263;54.654;9.410;2023-04-28T05:47:25;5.90;73.60
4501;DHT22;2263;54.654;9.410;2023-04-28T05:49:53;5.90;73.70
4501;DHT22;2263;54.654;9.410;2023-04-28T05:52:21;5.90;73.70
4501;DHT22;2263;54.654;9.410;2023-04-28T05:54:49;5.90;73.90
4501;DHT22;2263;54.654;9.410;2023-04-28T05:57:16;5.90;74.00
4501;DHT22;2263;54.654;9.410;2023-04-28T05:59:44;5.90;73.90
4501;DHT22;2263;54.654;9.410;2023-04-28T06:02:12;5.90;74.00
4501;DHT22;2263;54.654;9.410;2023-04-28T06:04:40;5.90;74.10
4501;DHT22;2263;54.654;9.410;2023-04-28T06:07:09;5.90;74.10
4501;DHT22;2263;54.654;9.410;2023-04-28T06:09:37;5.90;74.30
4501;DHT22;2263;54.654;9.410;2023-04-28T06:12:05;5.90;74.30
4501;DHT22;2263;54.654;9.410;2023-04-28T06:14:32;5.90;74.50
4501;DHT22;2263;54.654;9.410;2023-04-28T06:17:02;5.90;74.60
4501;DHT22;2263;54.654;9.410;2023-04-28T06:19:30;6.00;74.80
4501;DHT22;2263;54.654;9.410;2023-04-28T06:21:58;6.00;75.00
4501;DHT22;2263;54.654;9.410;2023-04-28T06:24:26;6.00;75.30
4501;DHT22;2263;54.654;9.410;2023-04-28T06:26:54;6.00;75.20
4501;DHT22;2263;54.654;9.410;2023-04-28T06:29:22;6.00;76.00
4501;DHT22;2263;54.654;9.410;2023-04-28T06:31:50;6.10;76.60
4501;DHT22;2263;54.654;9.410;2023-04-28T06:34:19;6.10;76.00
4501;DHT22;2263;54.654;9.410;2023-04-28T06:36:47;6.10;77.50
4501;DHT22;2263;54.654;9.410;2023-04-28T06:39:14;6.20;79.00
4501;DHT22;2263;54.654;9.410;2023-04-28T06:41:42;6.20;79.20
4501;DHT22;2263;54.654;9.410;2023-04-28T06:44:10;6.20;79.00
4501;DHT22;2263;54.654;9.410;2023-04-28T06:46:38;6.20;79.50
4501;DHT22;2263;54.654;9.410;2023-04-28T06:49:06;6.20;79.50
4501;DHT22;2263;54.654;9.410;2023-04-28T06:51:34;6.30;79.90
4501;DHT22;2263;54.654;9.410;2023-04-28T06:54:01;6.30;79.50
4501;DHT22;2263;54.654;9.410;2023-04-28T06:56:29;6.30;79.30
4501;DHT22;2263;54.654;9.410;2023-04-28T06:58:57;6.40;80.40
4501;DHT22;2263;54.654;9.410;2023-04-28T07:01:25;6.40;79.90
4501;DHT22;2263;54.654;9.410;2023-04-28T07:03:53;6.40;79.50
4501;DHT22;2263;54.654;9.410;2023-04-28T07:06:21;6.50;79.50
4501;DHT22;2263;54.654;9.410;2023-04-28T07:08:48;6.50;79.70
4501;DHT22;2263;54.654;9.410;2023-04-28T07:11:16;6.60;79.60
4501;DHT22;2263;54.654;9.410;2023-04-28T07:13:43;6.60;79.50
4501;DHT22;2263;54.654;9.410;2023-04-28T07:16:19;6.60;79.50
4501;DHT22;2263;54.654;9.410;2023-04-28T07:18:48;6.60;79.50
4501;DHT22;2263;54.654;9.410;2023-04-28T07:21:15;6.70;79.40
4501;DHT22;2263;54.654;9.410;2023-04-28T07:23:43;6.70;79.50
4501;DHT22;2263;54.654;9.410;2023-04-28T07:26:12;6.70;79.50
4501;DHT22;2263;54.654;9.410;2023-04-28T07:28:43;6.70;79.40
4501;DHT22;2263;54.654;9.410;2023-04-28T07:31:11;6.80;79.30
4501;DHT22;2263;54.654;9.410;2023-04-28T07:33:38;6.80;80.20
4501;DHT22;2263;54.654;9.410;2023-04-28T07:36:06;6.90;79.80
4501;DHT22;2263;54.654;9.410;2023-04-28T07:38:34;6.90;79.70
4501;DHT22;2263;54.654;9.410;2023-04-28T07:41:03;6.90;80.10
4501;DHT22;2263;54.654;9.410;2023-04-28T07:43:33;7.00;80.10
4501;DHT22;2263;54.654;9.410;2023-04-28T07:46:01;7.00;79.60
4501;DHT22;2263;54.654;9.410;2023-04-28T07:48:28;7.00;79.80
4501;DHT22;2263;54.654;9.410;2023-04-28T07:50:56;7.10;80.60
4501;DHT22;2263;54.654;9.410;2023-04-28T07:53:24;7.10;80.10
4501;DHT22;2263;54.654;9.410;2023-04-28T07:55:51;7.10;80.50
4501;DHT22;2263;54.654;9.410;2023-04-28T07:58:19;7.10;80.00
4501;DHT22;2263;54.654;9.410;2023-04-28T08:00:47;7.20;80.20
4501;DHT22;2263;54.654;9.410;2023-04-28T08:03:14;7.20;80.10
4501;DHT22;2263;54.654;9.410;2023-04-28T08:05:43;7.20;80.30
4501;DHT22;2263;54.654;9.410;2023-04-28T08:08:11;7.30;80.00
4501;DHT22;2263;54.654;9.410;2023-04-28T08:10:39;7.30;79.90
4501;DHT22;2263;54.654;9.410;2023-04-28T08:13:08;7.30;79.90
4501;DHT22;2263;54.654;9.410;2023-04-28T08:15:36;7.40;80.10
4501;DHT22;2263;54.654;9.410;2023-04-28T08:18:03;7.40;80.00
4501;DHT22;2263;54.654;9.410;2023-04-28T08:20:31;7.50;80.00
4501;DHT22;2263;54.654;9.410;2023-04-28T08:22:59;7.40;80.00
4501;DHT22;2263;54.654;9.410;2023-04-28T08:25:26;7.50;79.90
4501;DHT22;2263;54.654;9.410;2023-04-28T08:27:54;7.50;79.90
4501;DHT22;2263;54.654;9.410;2023-04-28T08:30:23;7.60;80.10
4501;DHT22;2263;54.654;9.410;2023-04-28T08:32:51;7.60;80.10
4501;DHT22;2263;54.654;9.410;2023-04-28T08:35:18;7.60;79.90
4501;DHT22;2263;54.654;9.410;2023-04-28T08:37:46;7.60;80.10
4501;DHT22;2263;54.654;9.410;2023-04-28T08:40:15;7.60;80.40
4501;DHT22;2263;54.654;9.410;2023-04-28T08:42:43;7.70;80.20
4501;DHT22;2263;54.654;9.410;2023-04-28T08:45:13;7.70;80.30
4501;DHT22;2263;54.654;9.410;2023-04-28T08:47:41;7.80;80.50
4501;DHT22;2263;54.654;9.410;2023-04-28T08:50:13;7.80;80.40
4501;DHT22;2263;54.654;9.410;2023-04-28T08:52:42;7.80;80.30
4501;DHT22;2263;54.654;9.410;2023-04-28T08:55:11;7.90;80.60
4501;DHT22;2263;54.654;9.410;2023-04-28T08:57:49;8.00;80.60
4501;DHT22;2263;54.654;9.410;2023-04-28T09:00:21;8.00;80.30
4501;DHT22;2263;54.654;9.410;2023-04-28T09:02:49;8.00;80.50
4501;DHT22;2263;54.654;9.410;2023-04-28T09:05:16;8.10;80.60
4501;DHT22;2263;54.654;9.410;2023-04-28T09:07:45;8.10;80.60
4501;DHT22;2263;54.654;9.410;2023-04-28T09:10:18;8.20;80.40
4501;DHT22;2263;54.654;9.410;2023-04-28T09:12:47;8.20;80.30
4501;DHT22;2263;54.654;9.410;2023-04-28T09:17:52;8.30;80.90
4501;DHT22;2263;54.654;9.410;2023-04-28T09:20:25;8.30;80.70
4501;DHT22;2263;54.654;9.410;2023-04-28T09:22:54;8.30;80.90
4501;DHT22;2263;54.654;9.410;2023-04-28T09:25:23;8.40;80.90
4501;DHT22;2263;54.654;9.410;2023-04-28T09:27:52;8.40;80.90
4501;DHT22;2263;54.654;9.410;2023-04-28T09:30:37;8.40;81.00
4501;DHT22;2263;54.654;9.410;2023-04-28T09:33:06;8.50;81.00
4501;DHT22;2263;54.654;9.410;2023-04-28T09:35:41;8.60;80.80
4501;DHT22;2263;54.654;9.410;2023-04-28T09:38:10;8.70;80.60
4501;DHT22;2263;54.654;9.410;2023-04-28T09:40:59;8.70;80.50
4501;DHT22;2263;54.654;9.410;2023-04-28T09:43:34;8.80;80.30
4501;DHT22;2263;54.654;9.410;2023-04-28T09:46:03;8.80;80.30
4501;DHT22;2263;54.654;9.410;2023-04-28T09:48:36;8.80;80.50
4501;DHT22;2263;54.654;9.410;2023-04-28T09:51:06;8.80;80.50
4501;DHT22;2263;54.654;9.410;2023-04-28T09:53:36;8.80;80.30
4501;DHT22;2263;54.654;9.410;2023-04-28T09:56:04;8.80;80.30
4501;DHT22;2263;54.654;9.410;2023-04-28T09:58:33;9.00;80.30
4501;DHT22;2263;54.654;9.410;2023-04-28T10:01:02;9.00;80.30
4501;DHT22;2263;54.654;9.410;2023-04-28T10:03:31;9.00;80.20
4501;DHT22;2263;54.654;9.410;2023-04-28T10:05:59;9.00;80.20
4501;DHT22;2263;54.654;9.410;2023-04-28T10:08:28;9.10;80.70
4501;DHT22;2263;54.654;9.410;2023-04-28T10:10:56;9.30;80.30
4501;DHT22;2263;54.654;9.410;2023-04-28T10:13:24;9.30;80.20
4501;DHT22;2263;54.654;9.410;2023-04-28T10:15:52;9.30;80.10
4501;DHT22;2263;54.654;9.410;2023-04-28T10:18:22;9.30;80.00
4501;DHT22;2263;54.654;9.410;2023-04-28T10:20:59;9.30;80.10
4501;DHT22;2263;54.654;9.410;2023-04-28T10:23:55;9.40;80.00
4501;DHT22;2263;54.654;9.410;2023-04-28T10:29:26;9.40;80.10
4501;DHT22;2263;54.654;9.410;2023-04-28T10:32:24;9.40;79.90
4501;DHT22;2263;54.654;9.410;2023-04-28T10:34:52;9.50;80.00
4501;DHT22;2263;54.654;9.410;2023-04-28T10:38:11;9.50;80.80
4501;DHT22;2263;54.654;9.410;2023-04-28T10:40:46;9.50;80.10
4501;DHT22;2263;54.654;9.410;2023-04-28T10:43:32;9.50;80.20
4501;DHT22;2263;54.654;9.410;2023-04-28T10:46:05;9.50;80.00
4501;DHT22;2263;54.654;9.410;2023-04-28T10:56:13;10.10;79.30
4501;DHT22;2263;54.654;9.410;2023-04-28T10:58:43;10.10;79.30
4501;DHT22;2263;54.654;9.410;2023-04-28T11:03:57;10.20;79.50
4501;DHT22;2263;54.654;9.410;2023-04-28T11:06:35;10.20;79.20
4501;DHT22;2263;54.654;9.410;2023-04-28T11:16:57;10.30;79.20
4501;DHT22;2263;54.654;9.410;2023-04-28T11:20:03;10.40;79.30
4501;DHT22;2263;54.654;9.410;2023-04-28T11:22:23;10.50;78.70
4501;DHT22;2263;54.654;9.410;2023-04-28T11:24:59;10.50;78.30
4501;DHT22;2263;54.654;9.410;2023-04-28T11:27:28;10.50;78.20
4501;DHT22;2263;54.654;9.410;2023-04-28T11:30:00;10.60;78.10
4501;DHT22;2263;54.654;9.410;2023-04-28T11:32:32;10.60;78.20
4501;DHT22;2263;54.654;9.410;2023-04-28T11:35:01;10.60;78.40
4501;DHT22;2263;54.654;9.410;2023-04-28T11:37:30;10.60;78.40
4501;DHT22;2263;54.654;9.410;2023-04-28T11:40:09;10.60;78.30
4501;DHT22;2263;54.654;9.410;2023-04-28T11:42:49;10.60;78.50
4501;DHT22;2263;54.654;9.410;2023-04-28T11:45:16;10.70;78.70
4501;DHT22;2263;54.654;9.410;2023-04-28T11:47:44;10.70;78.10
4501;DHT22;2263;54.654;9.410;2023-04-28T11:50:12;10.80;77.90
4501;DHT22;2263;54.654;9.410;2023-04-28T11:52:49;10.90;78.50
4501;DHT22;2263;54.654;9.410;2023-04-28T11:55:19;10.90;77.90
4501;DHT22;2263;54.654;9.410;2023-04-28T11:57:47;10.90;78.10
4501;DHT22;2263;54.654;9.410;2023-04-28T12:00:15;10.90;78.00
4501;DHT22;2263;54.654;9.410;2023-04-28T12:02:48;11.00;77.80
4501;DHT22;2263;54.654;9.410;2023-04-28T12:05:16;11.00;77.60
4501;DHT22;2263;54.654;9.410;2023-04-28T12:07:44;11.00;77.00
4501;DHT22;2263;54.654;9.410;2023-04-28T12:10:15;11.00;76.90
4501;DHT22;2263;54.654;9.410;2023-04-28T12:12:44;11.00;77.20
4501;DHT22;2263;54.654;9.410;2023-04-28T12:15:19;11.10;77.20
4501;DHT22;2263;54.654;9.410;2023-04-28T12:17:49;11.10;77.00
4501;DHT22;2263;54.654;9.410;2023-04-28T12:20:35;11.20;76.90
4501;DHT22;2263;54.654;9.410;2023-04-28T12:23:04;11.20;76.60
4501;DHT22;2263;54.654;9.410;2023-04-28T12:25:32;11.20;76.80
4501;DHT22;2263;54.654;9.410;2023-04-28T12:28:05;11.20;77.00
4501;DHT22;2263;54.654;9.410;2023-04-28T12:30:37;11.20;76.90
4501;DHT22;2263;54.654;9.410;2023-04-28T12:33:23;11.20;76.90
4501;DHT22;2263;54.654;9.410;2023-04-28T12:35:52;11.20;76.80
4501;DHT22;2263;54.654;9.410;2023-04-28T12:38:22;11.30;77.00
4501;DHT22;2263;54.654;9.410;2023-04-28T12:40:50;11.30;77.00
4501;DHT22;2263;54.654;9.410;2023-04-28T12:43:18;11.30;76.80
4501;DHT22;2263;54.654;9.410;2023-04-28T12:45:45;11.30;76.90
4501;DHT22;2263;54.654;9.410;2023-04-28T12:48:16;11.30;76.80
4501;DHT22;2263;54.654;9.410;2023-04-28T12:50:45;11.30;76.80
4501;DHT22;2263;54.654;9.410;2023-04-28T12:53:12;11.40;76.60
4501;DHT22;2263;54.654;9.410;2023-04-28T12:55:40;11.40;76.30
4501;DHT22;2263;54.654;9.410;2023-04-28T12:58:08;11.40;76.30
4501;DHT22;2263;54.654;9.410;2023-04-28T13:00:36;11.40;76.50
4501;DHT22;2263;54.654;9.410;2023-04-28T13:03:03;11.50;76.50
4501;DHT22;2263;54.654;9.410;2023-04-28T13:05:31;11.50;76.20
4501;DHT22;2263;54.654;9.410;2023-04-28T13:08:01;11.50;76.10
4501;DHT22;2263;54.654;9.410;2023-04-28T13:10:28;11.50;76.10
4501;DHT22;2263;54.654;9.410;2023-04-28T13:12:56;11.50;76.20
4501;DHT22;2263;54.654;9.410;2023-04-28T13:15:24;11.50;76.00
4501;DHT22;2263;54.654;9.410;2023-04-28T13:17:51;11.50;75.80
4501;DHT22;2263;54.654;9.410;2023-04-28T13:20:19;11.50;75.80
4501;DHT22;2263;54.654;9.410;2023-04-28T13:22:47;11.60;75.80
4501;DHT22;2263;54.654;9.410;2023-04-28T13:25:15;11.60;75.80
4501;DHT22;2263;54.654;9.410;2023-04-28T13:27:42;11.50;75.70
4501;DHT22;2263;54.654;9.410;2023-04-28T13:30:10;11.60;75.60
4501;DHT22;2263;54.654;9.410;2023-04-28T13:32:38;11.60;75.70
4501;DHT22;2263;54.654;9.410;2023-04-28T13:35:06;11.60;75.60
4501;DHT22;2263;54.654;9.410;2023-04-28T13:37:35;11.60;75.50
4501;DHT22;2263;54.654;9.410;2023-04-28T13:40:08;11.60;75.50
4501;DHT22;2263;54.654;9.410;2023-04-28T13:42:37;11.60;75.30
4501;DHT22;2263;54.654;9.410;2023-04-28T13:45:05;11.60;75.30
4501;DHT22;2263;54.654;9.410;2023-04-28T13:47:33;11.60;75.10
4501;DHT22;2263;54.654;9.410;2023-04-28T13:50:01;11.60;75.00
4501;DHT22;2263;54.654;9.410;2023-04-28T13:52:28;11.60;74.80
4501;DHT22;2263;54.654;9.410;2023-04-28T13:54:56;11.60;74.70
4501;DHT22;2263;54.654;9.410;2023-04-28T13:57:23;11.60;74.70
4501;DHT22;2263;54.654;9.410;2023-04-28T13:59:51;11.60;74.50
4501;DHT22;2263;54.654;9.410;2023-04-28T14:02:19;11.60;74.70
4501;DHT22;2263;54.654;9.410;2023-04-28T14:04:47;11.60;74.70
4501;DHT22;2263;54.654;9.410;2023-04-28T14:07:17;11.60;74.70
4501;DHT22;2263;54.654;9.410;2023-04-28T14:09:45;11.70;74.60
4501;DHT22;2263;54.654;9.410;2023-04-28T14:12:13;11.70;74.60
4501;DHT22;2263;54.654;9.410;2023-04-28T14:14:42;11.70;74.40
4501;DHT22;2263;54.654;9.410;2023-04-28T14:17:10;11.70;74.50
4501;DHT22;2263;54.654;9.410;2023-04-28T14:19:38;11.70;74.40
4501;DHT22;2263;54.654;9.410;2023-04-28T14:22:06;11.70;74.40
4501;DHT22;2263;54.654;9.410;2023-04-28T14:24:33;11.70;74.50
4501;DHT22;2263;54.654;9.410;2023-04-28T14:27:01;11.70;74.40
4501;DHT22;2263;54.654;9.410;2023-04-28T14:29:29;11.70;74.50
4501;DHT22;2263;54.654;9.410;2023-04-28T14:31:57;11.70;74.50
4501;DHT22;2263;54.654;9.410;2023-04-28T14:34:24;11.70;73.90
4501;DHT22;2263;54.654;9.410;2023-04-28T14:36:52;11.70;74.20
4501;DHT22;2263;54.654;9.410;2023-04-28T14:39:19;11.70;74.20
4501;DHT22;2263;54.654;9.410;2023-04-28T14:41:47;11.70;74.30
4501;DHT22;2263;54.654;9.410;2023-04-28T14:44:14;11.70;74.30
4501;DHT22;2263;54.654;9.410;2023-04-28T14:46:42;11.70;74.40
4501;DHT22;2263;54.654;9.410;2023-04-28T14:49:10;11.70;74.50
4501;DHT22;2263;54.654;9.410;2023-04-28T14:51:38;11.80;74.30
4501;DHT22;2263;54.654;9.410;2023-04-28T14:54:05;11.80;74.30
4501;DHT22;2263;54.654;9.410;2023-04-28T14:56:35;11.80;74.10
4501;DHT22;2263;54.654;9.410;2023-04-28T14:59:02;11.80;74.40
4501;DHT22;2263;54.654;9.410;2023-04-28T15:01:30;11.80;74.30
4501;DHT22;2263;54.654;9.410;2023-04-28T15:03:58;11.80;73.90
4501;DHT22;2263;54.654;9.410;2023-04-28T15:06:25;11.80;74.30
4501;DHT22;2263;54.654;9.410;2023-04-28T15:08:54;11.80;74.00
4501;DHT22;2263;54.654;9.410;2023-04-28T15:11:22;11.80;73.80
4501;DHT22;2263;54.654;9.410;2023-04-28T15:13:49;11.80;74.10
4501;DHT22;2263;54.654;9.410;2023-04-28T15:16:18;11.80;73.80
4501;DHT22;2263;54.654;9.410;2023-04-28T15:18:46;11.80;73.80
4501;DHT22;2263;54.654;9.410;2023-04-28T15:21:14;11.80;73.30
4501;DHT22;2263;54.654;9.410;2023-04-28T15:23:42;11.80;73.80
4501;DHT22;2263;54.654;9.410;2023-04-28T15:26:09;11.80;73.60
4501;DHT22;2263;54.654;9.410;2023-04-28T15:28:37;11.80;73.40
4501;DHT22;2263;54.654;9.410;2023-04-28T15:31:04;11.80;73.80
4501;DHT22;2263;54.654;9.410;2023-04-28T15:33:32;11.80;73.80
4501;DHT22;2263;54.654;9.410;2023-04-28T15:36:00;11.80;73.60
4501;DHT22;2263;54.654;9.410;2023-04-28T15:38:27;11.80;74.00
4501;DHT22;2263;54.654;9.410;2023-04-28T15:40:57;11.80;73.80
4501;DHT22;2263;54.654;9.410;2023-04-28T15:43:25;11.70;73.60
4501;DHT22;2263;54.654;9.410;2023-04-28T15:45:52;11.70;73.50
4501;DHT22;2263;54.654;9.410;2023-04-28T15:48:23;11.80;73.30
4501;DHT22;2263;54.654;9.410;2023-04-28T15:50:50;11.80;73.50
4501;DHT22;2263;54.654;9.410;2023-04-28T15:53:18;11.80;73.70
4501;DHT22;2263;54.654;9.410;2023-04-28T15:55:45;11.80;73.90
4501;DHT22;2263;54.654;9.410;2023-04-28T15:58:13;11.80;73.90
4501;DHT22;2263;54.654;9.410;2023-04-28T16:00:40;11.80;74.50
4501;DHT22;2263;54.654;9.410;2023-04-28T16:03:08;11.80;74.10
4501;DHT22;2263;54.654;9.410;2023-04-28T16:05:37;11.80;74.50
4501;DHT22;2263;54.654;9.410;2023-04-28T16:08:05;11.70;74.20
4501;DHT22;2263;54.654;9.410;2023-04-28T16:10:32;11.80;74.40
4501;DHT22;2263;54.654;9.410;2023-04-28T16:13:00;11.70;74.30
4501;DHT22;2263;54.654;9.410;2023-04-28T16:15:28;11.70;75.40
4501;DHT22;2263;54.654;9.410;2023-04-28T16:17:55;11.70;74.60
4501;DHT22;2263;54.654;9.410;2023-04-28T16:20:23;11.70;74.50
4501;DHT22;2263;54.654;9.410;2023-04-28T16:22:51;11.70;75.10
4501;DHT22;2263;54.654;9.410;2023-04-28T16:25:19;11.80;75.30
4501;DHT22;2263;54.654;9.410;2023-04-28T16:27:47;11.70;75.30
4501;DHT22;2263;54.654;9.410;2023-04-28T16:30:15;11.70;74.90
4501;DHT22;2263;54.654;9.410;2023-04-28T16:32:42;11.70;75.10
4501;DHT22;2263;54.654;9.410;2023-04-28T16:35:10;11.70;75.30
4501;DHT22;2263;54.654;9.410;2023-04-28T16:37:41;11.70;75.60
4501;DHT22;2263;54.654;9.410;2023-04-28T16:40:10;11.70;75.10
4501;DHT22;2263;54.654;9.410;2023-04-28T16:42:38;11.70;75.60
4501;DHT22;2263;54.654;9.410;2023-04-28T16:45:06;11.70;75.70
4501;DHT22;2263;54.654;9.410;2023-04-28T16:47:34;11.70;76.00